Aviation Digital Data Service (ADDS)

Output produced by METARs form (1708 UTC 16 June 2019)
found at http://www.aviationweather.gov/metar/data/
 
METAR text: OITM 161700Z 09006KT CAVOK 25/05 Q1012
Conditions at: OITM (SAHAND AIRPORT , IR) observed 1700 UTC 16 June 2019
Temperature: 25.0°C (77°F)
Dewpoint: 5.0°C (41°F) [RH = 28%]
Pressure (altimeter): 29.88 inches Hg (1012.0 mb)
Winds: from the E (90 degrees) at 7 MPH (6 knots; 3.1 m/s)
Visibility: 6 or more miles (10+ km)
Ceiling: ceiling and visibility are OK
Clouds: unknown
Weather: no significant weather observed at this time

METAR text: OITM 161600Z 32004KT 9999 FEW040 29/08 Q1012
Conditions at: OITM (SAHAND AIRPORT , IR) observed 1600 UTC 16 June 2019
Temperature: 29.0°C (84°F)
Dewpoint: 8.0°C (46°F) [RH = 27%]
Pressure (altimeter): 29.88 inches Hg (1012.0 mb)
Winds: from the NW (320 degrees) at 5 MPH (4 knots; 2.1 m/s)
Visibility: 6 or more miles (10+ km)
Ceiling: at least 12,000 feet AGL
Clouds: few clouds at 4000 feet AGL
Weather: no significant weather observed at this time

METAR text: OITM 161500Z 32008KT 9999 FEW036 31/07 Q1012
Conditions at: OITM (SAHAND AIRPORT , IR) observed 1500 UTC 16 June 2019
Temperature: 31.0°C (88°F)
Dewpoint: 7.0°C (45°F) [RH = 22%]
Pressure (altimeter): 29.88 inches Hg (1012.0 mb)
Winds: from the NW (320 degrees) at 9 MPH (8 knots; 4.1 m/s)
Visibility: 6 or more miles (10+ km)
Ceiling: at least 12,000 feet AGL
Clouds: few clouds at 3600 feet AGL
Weather: no significant weather observed at this time

METAR text: OITM 161400Z 27004KT 9999 FEW035TCU 33/07 Q1012
Conditions at: OITM (SAHAND AIRPORT , IR) observed 1400 UTC 16 June 2019
Temperature: 33.0°C (91°F)
Dewpoint: 7.0°C (45°F) [RH = 20%]
Pressure (altimeter): 29.88 inches Hg (1012.0 mb)
Winds: from the W (270 degrees) at 5 MPH (4 knots; 2.1 m/s)
Visibility: 6 or more miles (10+ km)
Ceiling: at least 12,000 feet AGL
Clouds: few clouds at 3500 feet AGL
Weather: no significant weather observed at this time

METAR text: OITM 161300Z 27008KT 9999 FEW035TCU 33/06 Q1012
Conditions at: OITM (SAHAND AIRPORT , IR) observed 1300 UTC 16 June 2019
Temperature: 33.0°C (91°F)
Dewpoint: 6.0°C (43°F) [RH = 19%]
Pressure (altimeter): 29.88 inches Hg (1012.0 mb)
Winds: from the W (270 degrees) at 9 MPH (8 knots; 4.1 m/s)
Visibility: 6 or more miles (10+ km)
Ceiling: at least 12,000 feet AGL
Clouds: few clouds at 3500 feet AGL
Weather: no significant weather observed at this time

METAR text: OITM 161200Z 25006KT 9999 FEW035TCU 33/07 Q1013
Conditions at: OITM (SAHAND AIRPORT , IR) observed 1200 UTC 16 June 2019
Temperature: 33.0°C (91°F)
Dewpoint: 7.0°C (45°F) [RH = 20%]
Pressure (altimeter): 29.91 inches Hg (1013.0 mb)
Winds: from the WSW (250 degrees) at 7 MPH (6 knots; 3.1 m/s)
Visibility: 6 or more miles (10+ km)
Ceiling: at least 12,000 feet AGL
Clouds: few clouds at 3500 feet AGL
Weather: no significant weather observed at this time

METAR text: OITM 161100Z 00000KT 9999 FEW035TCU 33/07 Q1013
Conditions at: OITM (SAHAND AIRPORT , IR) observed 1100 UTC 16 June 2019
Temperature: 33.0°C (91°F)
Dewpoint: 7.0°C (45°F) [RH = 20%]
Pressure (altimeter): 29.91 inches Hg (1013.0 mb)
Winds: calm
Visibility: 6 or more miles (10+ km)
Ceiling: at least 12,000 feet AGL
Clouds: few clouds at 3500 feet AGL
Weather: no significant weather observed at this time

METAR text: OITM 161000Z 00000KT 9999 FEW035TCU FEW039 31/09 Q1014
Conditions at: OITM (SAHAND AIRPORT , IR) observed 1000 UTC 16 June 2019
Temperature: 31.0°C (88°F)
Dewpoint: 9.0°C (48°F) [RH = 26%]
Pressure (altimeter): 29.94 inches Hg (1014.0 mb)
Winds: calm
Visibility: 6 or more miles (10+ km)
Ceiling: at least 12,000 feet AGL
Clouds: few clouds at 3500 feet AGL
few clouds at 3900 feet AGL
Weather: no significant weather observed at this time

METAR text: OITM 160900Z 27010KT 9999 FEW036 31/09 Q1014
Conditions at: OITM (SAHAND AIRPORT , IR) observed 0900 UTC 16 June 2019
Temperature: 31.0°C (88°F)
Dewpoint: 9.0°C (48°F) [RH = 26%]
Pressure (altimeter): 29.94 inches Hg (1014.0 mb)
Winds: from the W (270 degrees) at 12 MPH (10 knots; 5.1 m/s)
Visibility: 6 or more miles (10+ km)
Ceiling: at least 12,000 feet AGL
Clouds: few clouds at 3600 feet AGL
Weather: no significant weather observed at this time

METAR text: OITM 160800Z 12008KT 9999 FEW036 SCT039 30/09 Q1015
Conditions at: OITM (SAHAND AIRPORT , IR) observed 0800 UTC 16 June 2019
Temperature: 30.0°C (86°F)
Dewpoint: 9.0°C (48°F) [RH = 27%]
Pressure (altimeter): 29.97 inches Hg (1015.0 mb)
Winds: from the ESE (120 degrees) at 9 MPH (8 knots; 4.1 m/s)
Visibility: 6 or more miles (10+ km)
Ceiling: at least 12,000 feet AGL
Clouds: few clouds at 3600 feet AGL
scattered clouds at 3900 feet AGL
Weather: no significant weather observed at this time

METAR text: OITM 160700Z 08004KT 9999 FEW036 SCT040 30/08 Q1015
Conditions at: OITM (SAHAND AIRPORT , IR) observed 0700 UTC 16 June 2019
Temperature: 30.0°C (86°F)
Dewpoint: 8.0°C (46°F) [RH = 25%]
Pressure (altimeter): 29.97 inches Hg (1015.0 mb)
Winds: from the E (80 degrees) at 5 MPH (4 knots; 2.1 m/s)
Visibility: 6 or more miles (10+ km)
Ceiling: at least 12,000 feet AGL
Clouds: few clouds at 3600 feet AGL
scattered clouds at 4000 feet AGL
Weather: no significant weather observed at this time

METAR text: OITM 160600Z 14004KT 9999 FEW035 SCT039 28/08 Q1015
Conditions at: OITM (SAHAND AIRPORT , IR) observed 0600 UTC 16 June 2019
Temperature: 28.0°C (82°F)
Dewpoint: 8.0°C (46°F) [RH = 28%]
Pressure (altimeter): 29.97 inches Hg (1015.0 mb)
Winds: from the SE (140 degrees) at 5 MPH (4 knots; 2.1 m/s)
Visibility: 6 or more miles (10+ km)
Ceiling: at least 12,000 feet AGL
Clouds: few clouds at 3500 feet AGL
scattered clouds at 3900 feet AGL
Weather: no significant weather observed at this time

METAR text: OITM 160500Z 12004KT 9999 FEW034TCU BKN039 23/08 Q1015
Conditions at: OITM (SAHAND AIRPORT , IR) observed 0500 UTC 16 June 2019
Temperature: 23.0°C (73°F)
Dewpoint: 8.0°C (46°F) [RH = 38%]
Pressure (altimeter): 29.97 inches Hg (1015.0 mb)
Winds: from the ESE (120 degrees) at 5 MPH (4 knots; 2.1 m/s)
Visibility: 6 or more miles (10+ km)
Ceiling: 3900 feet AGL
Clouds: few clouds at 3400 feet AGL
broken clouds at 3900 feet AGL
Weather: no significant weather observed at this time

METAR text: OITM 160400Z 12004KT 9999 FEW035CB SCT040 22/09 Q1015
Conditions at: OITM (SAHAND AIRPORT , IR) observed 0400 UTC 16 June 2019
Temperature: 22.0°C (72°F)
Dewpoint: 9.0°C (48°F) [RH = 43%]
Pressure (altimeter): 29.97 inches Hg (1015.0 mb)
Winds: from the ESE (120 degrees) at 5 MPH (4 knots; 2.1 m/s)
Visibility: 6 or more miles (10+ km)
Ceiling: at least 12,000 feet AGL
Clouds: few clouds at 3500 feet AGL
scattered clouds at 4000 feet AGL
Weather: no significant weather observed at this time

METAR text: OITM 160300Z 07006KT 9999 FEW035CB SCT040 20/07 Q1015
Conditions at: OITM (SAHAND AIRPORT , IR) observed 0300 UTC 16 June 2019
Temperature: 20.0°C (68°F)
Dewpoint: 7.0°C (45°F) [RH = 43%]
Pressure (altimeter): 29.97 inches Hg (1015.0 mb)
Winds: from the ENE (70 degrees) at 7 MPH (6 knots; 3.1 m/s)
Visibility: 6 or more miles (10+ km)
Ceiling: at least 12,000 feet AGL
Clouds: few clouds at 3500 feet AGL
scattered clouds at 4000 feet AGL
Weather: no significant weather observed at this time

METAR text: OITM 160200Z 08004KT 9999 FEW035TCU SCT040 19/06 Q1015
Conditions at: OITM (SAHAND AIRPORT , IR) observed 0200 UTC 16 June 2019
Temperature: 19.0°C (66°F)
Dewpoint: 6.0°C (43°F) [RH = 43%]
Pressure (altimeter): 29.97 inches Hg (1015.0 mb)
Winds: from the E (80 degrees) at 5 MPH (4 knots; 2.1 m/s)
Visibility: 6 or more miles (10+ km)
Ceiling: at least 12,000 feet AGL
Clouds: few clouds at 3500 feet AGL
scattered clouds at 4000 feet AGL
Weather: no significant weather observed at this time

METAR text: OITM 160000Z 08008KT 9999 SCT040 20/06 Q1014
Conditions at: OITM (SAHAND AIRPORT , IR) observed 0000 UTC 16 June 2019
Temperature: 20.0°C (68°F)
Dewpoint: 6.0°C (43°F) [RH = 40%]
Pressure (altimeter): 29.94 inches Hg (1014.0 mb)
Winds: from the E (80 degrees) at 9 MPH (8 knots; 4.1 m/s)
Visibility: 6 or more miles (10+ km)
Ceiling: at least 12,000 feet AGL
Clouds: scattered clouds at 4000 feet AGL
Weather: no significant weather observed at this time

METAR text: OITM 152100Z 09014KT CAVOK 21/07 Q1014
Conditions at: OITM (SAHAND AIRPORT , IR) observed 2100 UTC 15 June 2019
Temperature: 21.0°C (70°F)
Dewpoint: 7.0°C (45°F) [RH = 40%]
Pressure (altimeter): 29.94 inches Hg (1014.0 mb)
Winds: from the E (90 degrees) at 16 MPH (14 knots; 7.2 m/s)
Visibility: 6 or more miles (10+ km)
Ceiling: ceiling and visibility are OK
Clouds: unknown
Weather: no significant weather observed at this time

METAR text: OITM 151800Z 11008KT 9999 FEW040 SCT190 22/07 Q1015
Conditions at: OITM (SAHAND AIRPORT , IR) observed 1800 UTC 15 June 2019
Temperature: 22.0°C (72°F)
Dewpoint: 7.0°C (45°F) [RH = 38%]
Pressure (altimeter): 29.97 inches Hg (1015.0 mb)
Winds: from the ESE (110 degrees) at 9 MPH (8 knots; 4.1 m/s)
Visibility: 6 or more miles (10+ km)
Ceiling: at least 12,000 feet AGL
Clouds: few clouds at 4000 feet AGL
scattered clouds at 19000 feet AGL
Weather: no significant weather observed at this time

METAR text: OITM 151700Z 08008KT 9999 FEW040 SCT190 25/06 Q1014
Conditions at: OITM (SAHAND AIRPORT , IR) observed 1700 UTC 15 June 2019
Temperature: 25.0°C (77°F)
Dewpoint: 6.0°C (43°F) [RH = 30%]
Pressure (altimeter): 29.94 inches Hg (1014.0 mb)
Winds: from the E (80 degrees) at 9 MPH (8 knots; 4.1 m/s)
Visibility: 6 or more miles (10+ km)
Ceiling: at least 12,000 feet AGL
Clouds: few clouds at 4000 feet AGL
scattered clouds at 19000 feet AGL
Weather: no significant weather observed at this time

METAR text: OITM 151600Z 07006KT 9999 FEW035CB SCT190 26/07 Q1014
Conditions at: OITM (SAHAND AIRPORT , IR) observed 1600 UTC 15 June 2019
Temperature: 26.0°C (79°F)
Dewpoint: 7.0°C (45°F) [RH = 30%]
Pressure (altimeter): 29.94 inches Hg (1014.0 mb)
Winds: from the ENE (70 degrees) at 7 MPH (6 knots; 3.1 m/s)
Visibility: 6 or more miles (10+ km)
Ceiling: at least 12,000 feet AGL
Clouds: few clouds at 3500 feet AGL
scattered clouds at 19000 feet AGL
Weather: no significant weather observed at this time

METAR text: OITM 151500Z 33006KT 9999 FEW036TCU SCT040 28/09 Q1014
Conditions at: OITM (SAHAND AIRPORT , IR) observed 1500 UTC 15 June 2019
Temperature: 28.0°C (82°F)
Dewpoint: 9.0°C (48°F) [RH = 30%]
Pressure (altimeter): 29.94 inches Hg (1014.0 mb)
Winds: from the NNW (330 degrees) at 7 MPH (6 knots; 3.1 m/s)
Visibility: 6 or more miles (10+ km)
Ceiling: at least 12,000 feet AGL
Clouds: few clouds at 3600 feet AGL
scattered clouds at 4000 feet AGL
Weather: no significant weather observed at this time

METAR text: OITM 151400Z 30010KT 9999 FEW036TCU FEW039CB SCT090 29/07 Q1013
Conditions at: OITM (SAHAND AIRPORT , IR) observed 1400 UTC 15 June 2019
Temperature: 29.0°C (84°F)
Dewpoint: 7.0°C (45°F) [RH = 25%]
Pressure (altimeter): 29.91 inches Hg (1013.0 mb)
Winds: from the WNW (300 degrees) at 12 MPH (10 knots; 5.1 m/s)
Visibility: 6 or more miles (10+ km)
Ceiling: at least 12,000 feet AGL
Clouds: few clouds at 3600 feet AGL
few clouds at 3900 feet AGL
scattered clouds at 9000 feet AGL
Weather: no significant weather observed at this time

METAR text: OITM 151300Z 30010KT 9999 FEW036TCU FEW039CB SCT170 30/07 Q1013
Conditions at: OITM (SAHAND AIRPORT , IR) observed 1300 UTC 15 June 2019
Temperature: 30.0°C (86°F)
Dewpoint: 7.0°C (45°F) [RH = 24%]
Pressure (altimeter): 29.91 inches Hg (1013.0 mb)
Winds: from the WNW (300 degrees) at 12 MPH (10 knots; 5.1 m/s)
Visibility: 6 or more miles (10+ km)
Ceiling: at least 12,000 feet AGL
Clouds: few clouds at 3600 feet AGL
few clouds at 3900 feet AGL
scattered clouds at 17000 feet AGL
Weather: no significant weather observed at this time

METAR text: OITM 151200Z 29006KT 9999 FEW036TCU FEW038CB 31/08 Q1014
Conditions at: OITM (SAHAND AIRPORT , IR) observed 1200 UTC 15 June 2019
Temperature: 31.0°C (88°F)
Dewpoint: 8.0°C (46°F) [RH = 24%]
Pressure (altimeter): 29.94 inches Hg (1014.0 mb)
Winds: from the WNW (290 degrees) at 7 MPH (6 knots; 3.1 m/s)
Visibility: 6 or more miles (10+ km)
Ceiling: at least 12,000 feet AGL
Clouds: few clouds at 3600 feet AGL
few clouds at 3800 feet AGL
Weather: no significant weather observed at this time

METAR text: OITM 151100Z 32008KT 9999 FEW038TCU 30/08 Q1014
Conditions at: OITM (SAHAND AIRPORT , IR) observed 1100 UTC 15 June 2019
Temperature: 30.0°C (86°F)
Dewpoint: 8.0°C (46°F) [RH = 25%]
Pressure (altimeter): 29.94 inches Hg (1014.0 mb)
Winds: from the NW (320 degrees) at 9 MPH (8 knots; 4.1 m/s)
Visibility: 6 or more miles (10+ km)
Ceiling: at least 12,000 feet AGL
Clouds: few clouds at 3800 feet AGL
Weather: no significant weather observed at this time

METAR text: OITM 151000Z 15008KT 9999 FEW036TCU 30/09 Q1014
Conditions at: OITM (SAHAND AIRPORT , IR) observed 1000 UTC 15 June 2019
Temperature: 30.0°C (86°F)
Dewpoint: 9.0°C (48°F) [RH = 27%]
Pressure (altimeter): 29.94 inches Hg (1014.0 mb)
Winds: from the SSE (150 degrees) at 9 MPH (8 knots; 4.1 m/s)
Visibility: 6 or more miles (10+ km)
Ceiling: at least 12,000 feet AGL
Clouds: few clouds at 3600 feet AGL
Weather: no significant weather observed at this time

METAR text: OITM 150900Z 14006KT 9999 FEW036TCU 29/08 Q1015
Conditions at: OITM (SAHAND AIRPORT , IR) observed 0900 UTC 15 June 2019
Temperature: 29.0°C (84°F)
Dewpoint: 8.0°C (46°F) [RH = 27%]
Pressure (altimeter): 29.97 inches Hg (1015.0 mb)
Winds: from the SE (140 degrees) at 7 MPH (6 knots; 3.1 m/s)
Visibility: 6 or more miles (10+ km)
Ceiling: at least 12,000 feet AGL
Clouds: few clouds at 3600 feet AGL
Weather: no significant weather observed at this time

METAR text: OITM 150800Z 13010KT 9999 FEW038TCU 28/09 Q1016
Conditions at: OITM (SAHAND AIRPORT , IR) observed 0800 UTC 15 June 2019
Temperature: 28.0°C (82°F)
Dewpoint: 9.0°C (48°F) [RH = 30%]
Pressure (altimeter): 30.00 inches Hg (1016.0 mb)
Winds: from the SE (130 degrees) at 12 MPH (10 knots; 5.1 m/s)
Visibility: 6 or more miles (10+ km)
Ceiling: at least 12,000 feet AGL
Clouds: few clouds at 3800 feet AGL
Weather: no significant weather observed at this time

METAR text: OITM 150700Z 11010KT 9999 FEW038 27/08 Q1016
Conditions at: OITM (SAHAND AIRPORT , IR) observed 0700 UTC 15 June 2019
Temperature: 27.0°C (81°F)
Dewpoint: 8.0°C (46°F) [RH = 30%]
Pressure (altimeter): 30.00 inches Hg (1016.0 mb)
Winds: from the ESE (110 degrees) at 12 MPH (10 knots; 5.1 m/s)
Visibility: 6 or more miles (10+ km)
Ceiling: at least 12,000 feet AGL
Clouds: few clouds at 3800 feet AGL
Weather: no significant weather observed at this time

METAR text: OITM 150600Z 10010KT 9999 FEW038 26/08 Q1016
Conditions at: OITM (SAHAND AIRPORT , IR) observed 0600 UTC 15 June 2019
Temperature: 26.0°C (79°F)
Dewpoint: 8.0°C (46°F) [RH = 32%]
Pressure (altimeter): 30.00 inches Hg (1016.0 mb)
Winds: from the E (100 degrees) at 12 MPH (10 knots; 5.1 m/s)
Visibility: 6 or more miles (10+ km)
Ceiling: at least 12,000 feet AGL
Clouds: few clouds at 3800 feet AGL
Weather: no significant weather observed at this time